1866 Hurricane NOT_NAMED (1866295N28326)


IBTrACS version v04r00. Visit IBTrACS website for data access.
Please direct all questions to the IBTrACS Q and A forum

Storm track - Intensity - Wind Radii - Intensity Data - Source Data - All data

Summary Information

Storm ID 1866295N28326
Start Oct 21 12Z
Max Intensity 75 kt (Oct 24 12Z), 984 mb (Oct 24 06Z)
End Oct 31 12Z
ATCF IDs
Track status Best track data.

Storm track plot

Map of storm track

Intensity plots

Map of storm track

Radial wind information

No radial wind information for this storm


Position and Intensity Table

BASIN ISO_TIME_________ NATURE LAT LON MLC WIND MLC PRES
degrees north degrees east kts mb
NA 1866-10-21 12:00:00 TS 27.50 -34.00 30
NA 15:00:00 TS 27.90 -34.40 30
NA 18:00:00 TS 28.30 -34.80 30
NA 21:00:00 TS 28.71 -35.20 32
NA 1866-10-22 00:00:00 TS 29.10 -35.60 35
NA 03:00:00 TS 29.41 -36.00 35
NA 06:00:00 TS 29.70 -36.40 35
NA 09:00:00 TS 30.00 -36.81 35
NA 12:00:00 TS 30.30 -37.20 35
NA 15:00:00 TS 30.60 -37.57 37
NA 18:00:00 TS 30.90 -37.90 40
NA 21:00:00 TS 31.21 -38.22 42
NA 1866-10-23 00:00:00 TS 31.50 -38.50 45
NA 03:00:00 TS 31.76 -38.77 47
NA 06:00:00 TS 32.00 -39.00 50
NA 09:00:00 TS 32.21 -39.21 52
NA 12:00:00 TS 32.40 -39.40 55
NA 15:00:00 TS 32.56 -39.60 57
NA 18:00:00 TS 32.70 -39.80 60
NA 21:00:00 TS 32.85 -40.01 60
NA 1866-10-24 00:00:00 TS 33.00 -40.20 60
NA 03:00:00 TS 33.17 -40.38 65
NA 06:00:00 TS 33.30 -40.50 70 984
NA 09:00:00 TS 33.36 -40.52 72
NA 12:00:00 TS 33.40 -40.50 75
NA 15:00:00 TS 33.45 -40.55 75
NA 18:00:00 TS 33.50 -40.60 75
NA 21:00:00 TS 33.56 -40.60 75
NA 1866-10-25 00:00:00 TS 33.60 -40.60 75
NA 03:00:00 TS 33.60 -40.65 75
NA 06:00:00 TS 33.60 -40.70 75
NA 09:00:00 TS 33.65 -40.71 75
NA 12:00:00 TS 33.70 -40.70 75
NA 15:00:00 TS 33.71 -40.69 75
NA 18:00:00 TS 33.70 -40.70 75
NA 21:00:00 TS 33.69 -40.75 75
NA 1866-10-26 00:00:00 TS 33.70 -40.80 75
NA 03:00:00 TS 33.74 -40.81 75
NA 06:00:00 TS 33.80 -40.80 75
NA 09:00:00 TS 33.85 -40.79 75
NA 12:00:00 TS 33.90 -40.80 75
NA 15:00:00 TS 33.95 -40.85 75
NA 18:00:00 TS 34.00 -40.90 75
NA 21:00:00 TS 34.05 -40.90 72
NA 1866-10-27 00:00:00 TS 34.10 -40.90 70
NA 03:00:00 TS 34.14 -40.95 67
NA 06:00:00 TS 34.20 -41.00 65
NA 09:00:00 TS 34.33 -41.01 65
NA 12:00:00 TS 34.50 -41.00 65
NA 15:00:00 TS 34.64 -41.00 65
NA 18:00:00 TS 34.80 -41.00 65
NA 21:00:00 TS 35.00 -41.01 62
NA 1866-10-28 00:00:00 TS 35.20 -41.00 60
NA 03:00:00 TS 35.33 -40.94 60
NA 06:00:00 TS 35.50 -40.80 60
NA 09:00:00 TS 35.83 -40.61 57
NA 12:00:00 TS 36.20 -40.30 55
NA 15:00:00 TS 36.51 -39.82 55
NA 18:00:00 TS 36.80 -39.30 55
NA 21:00:00 TS 37.06 -38.89 52
NA 1866-10-29 00:00:00 TS 37.40 -38.50 50
NA 03:00:00 TS 37.92 -38.12 50
NA 06:00:00 TS 38.50 -37.60 50
NA 09:00:00 TS 38.97 -36.77 47
NA 12:00:00 TS 39.50 -35.80 45
NA 15:00:00 TS 40.21 -34.86 45
NA 18:00:00 TS 41.00 -33.90 45
NA 21:00:00 TS 41.75 -32.94 45
NA 1866-10-30 00:00:00 TS 42.50 -32.00 45
NA 03:00:00 TS 43.26 -31.09 45
NA 06:00:00 ET 44.00 -30.20 45
NA 09:00:00 ET 44.71 -29.30 45
NA 12:00:00 ET 45.40 -28.40 45
NA 15:00:00 ET 46.10 -27.50 45
NA 18:00:00 ET 46.80 -26.60 45
NA 21:00:00 ET 47.50 -25.70 45
NA 1866-10-31 00:00:00 ET 48.20 -24.80 45
NA 03:00:00 ET 48.90 -23.91 45
NA 06:00:00 ET 49.60 -23.00 45
NA 09:00:00 ET 50.30 -22.03 45
NA 12:00:00 ET 51.00 -21.00 45

Source Information

Agency Information
USA
TOKYO
CMA
HKO
NEWDELHI
REUNION
BOM
NADI
WELLINGTON
DS824
TD9636
TD9635
NEUMANN
MLC

All available IBTrACS Data

SEASON BASIN SUBBASIN ISO_TIME_________ NATURE LAT LON DIST2LAND LANDFALL IFLAG USA SSHS MLC LAT MLC LON MLC CLASS MLC WIND MLC PRES STORM SPEED STORM DIR
Year degrees north degrees east km km 1 degrees north degrees east kts mb kts degrees
1866 NA NA 1866-10-21 12:00:00 TS 27.50 -34.00 1689 1689 _____________O -1 27.50 -34.00 TD 30 11 318
1866 NA NA 15:00:00 TS 27.90 -34.40 1723 1723 _____________P -1 27.90 -34.40 TD 30 11 319
1866 NA NA 18:00:00 TS 28.30 -34.80 1758 1758 _____________O -1 28.30 -34.80 TD 30 11 319
1866 NA NA 21:00:00 TS 28.71 -35.20 1794 1794 _____________P -1 28.71 -35.20 TD 32 11 319
1866 NA NA 1866-10-22 00:00:00 TS 29.10 -35.60 1831 1831 _____________O -1 29.10 -35.60 TS 35 10 315
1866 NA NA 03:00:00 TS 29.41 -36.00 1869 1869 _____________P -1 29.41 -36.00 TS 35 9 311
1866 NA NA 06:00:00 TS 29.70 -36.40 1907 1907 _____________O -1 29.70 -36.40 TS 35 9 310
1866 NA NA 09:00:00 TS 30.00 -36.81 1946 1946 _____________P -1 30.00 -36.81 TS 35 9 311
1866 NA NA 12:00:00 TS 30.30 -37.20 1985 1985 _____________O -1 30.30 -37.20 TS 35 9 313
1866 NA NA 15:00:00 TS 30.60 -37.57 2024 2024 _____________P -1 30.60 -37.57 TS 37 9 315
1866 NA NA 18:00:00 TS 30.90 -37.90 2054 2054 _____________O -1 30.90 -37.90 TS 40 8 317
1866 NA NA 21:00:00 TS 31.21 -38.22 2084 2084 _____________P -1 31.21 -38.22 TS 42 8 319
1866 NA NA 1866-10-23 00:00:00 TS 31.50 -38.50 2096 2053 _____________O -1 31.50 -38.50 TS 45 7 320
1866 NA NA 03:00:00 TS 31.76 -38.77 2053 2024 _____________P -1 31.76 -38.77 TS 47 7 320
1866 NA NA 06:00:00 TS 32.00 -39.00 2024 1995 _____________O -1 32.00 -39.00 TS 50 6 320
1866 NA NA 09:00:00 TS 32.21 -39.21 1995 1966 _____________P -1 32.21 -39.21 TS 52 5 320
1866 NA NA 12:00:00 TS 32.40 -39.40 1966 1947 _____________O -1 32.40 -39.40 TS 55 5 316
1866 NA NA 15:00:00 TS 32.56 -39.60 1937 1918 _____________P -1 32.56 -39.60 TS 57 5 312
1866 NA NA 18:00:00 TS 32.70 -39.80 1918 1898 _____________O -1 32.70 -39.80 TS 60 5 310
1866 NA NA 21:00:00 TS 32.85 -40.01 1889 1870 _____________P -1 32.85 -40.01 TS 60 5 312
1866 NA NA 1866-10-24 00:00:00 TS 33.00 -40.20 1870 1841 _____________O -1 33.00 -40.20 TS 60 4 315
1866 NA NA 03:00:00 TS 33.17 -40.38 1841 1826 _____________P -1 33.17 -40.38 TS 65 4 320
1866 NA NA 06:00:00 TS 33.30 -40.50 1826 1817 _____________O -1 33.30 -40.50 HU 70 984 2 330
1866 NA NA 09:00:00 TS 33.36 -40.52 1817 1817 _____________P -1 33.36 -40.52 HU 72 1 0
1866 NA NA 12:00:00 TS 33.40 -40.50 1817 1817 _____________O -1 33.40 -40.50 HU 75 1 331
1866 NA NA 15:00:00 TS 33.45 -40.55 1808 1803 _____________P -1 33.45 -40.55 HU 75 1 323
1866 NA NA 18:00:00 TS 33.50 -40.60 1803 1793 _____________O -1 33.50 -40.60 HU 75 1 344
1866 NA NA 21:00:00 TS 33.56 -40.60 1793 1793 _____________P -1 33.56 -40.60 HU 75 1 0
1866 NA NA 1866-10-25 00:00:00 TS 33.60 -40.60 1793 1793 _____________O -1 33.60 -40.60 HU 75 1 319
1866 NA NA 03:00:00 TS 33.60 -40.65 1788 1788 _____________P -1 33.60 -40.65 HU 75 1 270
1866 NA NA 06:00:00 TS 33.60 -40.70 1788 1788 _____________O -1 33.60 -40.70 HU 75 1 317
1866 NA NA 09:00:00 TS 33.65 -40.71 1779 1779 _____________P -1 33.65 -40.71 HU 75 1 0
1866 NA NA 12:00:00 TS 33.70 -40.70 1779 1779 _____________O -1 33.70 -40.70 HU 75 1 0
1866 NA NA 15:00:00 TS 33.71 -40.69 1779 1779 _____________P -1 33.71 -40.69 HU 75 0 0
1866 NA NA 18:00:00 TS 33.70 -40.70 1779 1779 _____________O -1 33.70 -40.70 HU 75 1 248
1866 NA NA 21:00:00 TS 33.69 -40.75 1779 1774 _____________P -1 33.69 -40.75 HU 75 1 270
1866 NA NA 1866-10-26 00:00:00 TS 33.70 -40.80 1774 1774 _____________O -1 33.70 -40.80 HU 75 1 317
1866 NA NA 03:00:00 TS 33.74 -40.81 1774 1764 _____________P -1 33.74 -40.81 HU 75 1 0
1866 NA NA 06:00:00 TS 33.80 -40.80 1764 1764 _____________O -1 33.80 -40.80 HU 75 1 0
1866 NA NA 09:00:00 TS 33.85 -40.79 1755 1755 _____________P -1 33.85 -40.79 HU 75 1 0
1866 NA NA 12:00:00 TS 33.90 -40.80 1755 1755 _____________O -1 33.90 -40.80 HU 75 1 343
1866 NA NA 15:00:00 TS 33.95 -40.85 1746 1741 _____________P -1 33.95 -40.85 HU 75 1 323
1866 NA NA 18:00:00 TS 34.00 -40.90 1741 1741 _____________O -1 34.00 -40.90 HU 75 1 343
1866 NA NA 21:00:00 TS 34.05 -40.90 1741 1731 _____________P -1 34.05 -40.90 HU 72 1 0
1866 NA NA 1866-10-27 00:00:00 TS 34.10 -40.90 1731 1731 _____________O -1 34.10 -40.90 HU 70 1 331
1866 NA NA 03:00:00 TS 34.14 -40.95 1731 1717 _____________P -1 34.14 -40.95 HU 67 1 323
1866 NA NA 06:00:00 TS 34.20 -41.00 1717 1708 _____________O -1 34.20 -41.00 HU 65 2 347
1866 NA NA 09:00:00 TS 34.33 -41.01 1708 1689 _____________P -1 34.33 -41.01 HU 65 3 0
1866 NA NA 12:00:00 TS 34.50 -41.00 1689 1680 _____________O -1 34.50 -41.00 HU 65 3 0
1866 NA NA 15:00:00 TS 34.64 -41.00 1680 1661 _____________P -1 34.64 -41.00 HU 65 3 0
1866 NA NA 18:00:00 TS 34.80 -41.00 1661 1643 _____________O -1 34.80 -41.00 HU 65 4 356
1866 NA NA 21:00:00 TS 35.00 -41.01 1643 1624 _____________P -1 35.00 -41.01 HU 62 4 0
1866 NA NA 1866-10-28 00:00:00 TS 35.20 -41.00 1624 1615 _____________O -1 35.20 -41.00 TS 60 3 11
1866 NA NA 03:00:00 TS 35.33 -40.94 1621 1608 _____________P -1 35.33 -40.94 TS 60 3 28
1866 NA NA 06:00:00 TS 35.50 -40.80 1608 1592 _____________O -1 35.50 -40.80 TS 60 6 28
1866 NA NA 09:00:00 TS 35.83 -40.61 1592 1573 _____________P -1 35.83 -40.61 TS 57 8 30
1866 NA NA 12:00:00 TS 36.20 -40.30 1573 1567 _____________O -1 36.20 -40.30 TS 55 9 43
1866 NA NA 15:00:00 TS 36.51 -39.82 1576 1570 _____________P -1 36.51 -39.82 TS 55 10 53
1866 NA NA 18:00:00 TS 36.80 -39.30 1580 1578 _____________O -1 36.80 -39.30 TS 55 9 53
1866 NA NA 21:00:00 TS 37.06 -38.89 1579 1577 _____________P -1 37.06 -38.89 TS 52 9 47
1866 NA NA 1866-10-29 00:00:00 TS 37.40 -38.50 1580 1560 _____________O -1 37.40 -38.50 TS 50 11 35
1866 NA NA 03:00:00 TS 37.92 -38.12 1566 1553 _____________P -1 37.92 -38.12 TS 50 13 33
1866 NA NA 06:00:00 TS 38.50 -37.60 1553 1551 _____________O -1 38.50 -37.60 TS 50 15 45
1866 NA NA 09:00:00 TS 38.97 -36.77 1570 1570 _____________P -1 38.97 -36.77 TS 47 17 54
1866 NA NA 12:00:00 TS 39.50 -35.80 1604 1604 _____________O -1 39.50 -35.80 TS 45 19 50
1866 NA NA 15:00:00 TS 40.21 -34.86 1623 1623 _____________P -1 40.21 -34.86 TS 45 21 44
1866 NA NA 18:00:00 TS 41.00 -33.90 1644 1644 _____________O -1 41.00 -33.90 TS 45 21 43
1866 NA NA 21:00:00 TS 41.75 -32.94 1676 1670 _____________P -1 41.75 -32.94 TS 45 21 43
1866 NA NA 1866-10-30 00:00:00 TS 42.50 -32.00 1700 1700 _____________O -1 42.50 -32.00 TS 45 20 42
1866 NA NA 03:00:00 TS 43.26 -31.09 1729 1678 _____________P -1 43.26 -31.09 TS 45 20 41
1866 NA NA 06:00:00 ET 44.00 -30.20 1678 1593 _____________O -1 44.00 -30.20 EX 45 19 42
1866 NA NA 09:00:00 ET 44.71 -29.30 1593 1491 _____________P -1 44.71 -29.30 EX 45 19 42
1866 NA NA 12:00:00 ET 45.40 -28.40 1491 1390 _____________O -1 45.40 -28.40 EX 45 19 42
1866 NA NA 15:00:00 ET 46.10 -27.50 1390 1290 _____________P -1 46.10 -27.50 EX 45 19 42
1866 NA NA 18:00:00 ET 46.80 -26.60 1290 1192 _____________O -1 46.80 -26.60 EX 45 19 41
1866 NA NA 21:00:00 ET 47.50 -25.70 1192 1097 _____________P -1 47.50 -25.70 EX 45 19 41
1866 NA NA 1866-10-31 00:00:00 ET 48.20 -24.80 1097 1010 _____________O -1 48.20 -24.80 EX 45 18 40
1866 NA NA 03:00:00 ET 48.90 -23.91 1004 921 _____________P -1 48.90 -23.91 EX 45 18 40
1866 NA NA 06:00:00 ET 49.60 -23.00 914 827 _____________O -1 49.60 -23.00 EX 45 19 41
1866 NA NA 09:00:00 ET 50.30 -22.03 820 738 _____________P -1 50.30 -22.03 EX 45 19 42
1866 NA NA 12:00:00 ET 51.00 -21.00 731 _____________O -1 51.00 -21.00 EX 45 19 43